createdAt,value
2023-03-25T00:01:48.482Z,3.70
2023-03-25T00:04:17.695Z,5.00
2023-03-25T00:06:46.932Z,3.13
2023-03-25T00:09:14.695Z,4.03
2023-03-25T00:11:42.487Z,2.33
2023-03-25T00:14:12.213Z,2.93
2023-03-25T00:16:40.132Z,4.27
2023-03-25T00:19:09.361Z,2.10
2023-03-25T00:21:37.472Z,1.80
2023-03-25T00:24:05.609Z,4.80
2023-03-25T00:26:33.423Z,5.30
2023-03-25T00:29:01.218Z,2.00
2023-03-25T00:31:29.077Z,3.37
2023-03-25T00:33:58.054Z,2.07
2023-03-25T00:36:27.400Z,2.77
2023-03-25T00:38:55.335Z,2.37
2023-03-25T00:41:25.466Z,2.90
2023-03-25T00:43:55.435Z,3.07
2023-03-25T00:46:24.024Z,3.20
2023-03-25T00:48:52.638Z,3.67
2023-03-25T00:51:21.765Z,4.13
2023-03-25T00:53:54.814Z,4.47
2023-03-25T00:56:23.274Z,2.57
2023-03-25T00:58:51.462Z,3.60
2023-03-25T01:01:23.481Z,4.20
2023-03-25T01:03:57.627Z,3.90
2023-03-25T01:06:29.794Z,4.17
2023-03-25T01:09:00.586Z,4.67
2023-03-25T01:11:30.874Z,5.60
2023-03-25T01:14:00.215Z,3.87
2023-03-25T01:16:28.975Z,4.13
2023-03-25T01:18:57.232Z,4.50
2023-03-25T01:21:26.624Z,1.97
2023-03-25T01:23:54.449Z,3.37
2023-03-25T01:26:23.563Z,6.53
2023-03-25T01:28:51.406Z,3.00
2023-03-25T01:31:19.217Z,6.07
2023-03-25T01:33:47.017Z,5.20
2023-03-25T01:36:14.809Z,5.30
2023-03-25T01:38:43.723Z,6.47
2023-03-25T01:41:11.986Z,4.10
2023-03-25T01:43:41.650Z,5.07
2023-03-25T01:46:15.081Z,6.17
2023-03-25T01:48:45.417Z,3.93
2023-03-25T01:51:17.780Z,3.83
2023-03-25T01:53:45.874Z,4.57
2023-03-25T01:56:19.586Z,4.73
2023-03-25T01:58:48.833Z,5.57
2023-03-25T02:01:21.665Z,4.30
2023-03-25T02:03:52.973Z,4.43
2023-03-25T02:06:28.526Z,5.47
2023-03-25T02:08:59.224Z,5.13
2023-03-25T02:11:29.436Z,5.70
2023-03-25T02:14:01.448Z,4.30
2023-03-25T02:16:38.038Z,4.67
2023-03-25T02:19:42.591Z,3.67
2023-03-25T02:22:38.651Z,5.70
2023-03-25T02:25:45.834Z,3.30
2023-03-25T02:28:25.681Z,3.10
2023-03-25T02:31:28.477Z,2.67
2023-03-25T02:34:31.438Z,5.60
2023-03-25T02:37:30.427Z,3.53
2023-03-25T02:40:07.043Z,5.20
2023-03-25T02:42:41.511Z,4.60
2023-03-25T02:45:15.541Z,3.77
2023-03-25T02:47:48.174Z,6.90
2023-03-25T02:50:20.811Z,3.43
2023-03-25T02:52:53.078Z,5.30
2023-03-25T02:55:25.424Z,3.70
2023-03-25T02:57:57.299Z,3.17
2023-03-25T03:00:28.607Z,4.03
2023-03-25T03:03:00.233Z,3.40
2023-03-25T03:05:32.635Z,4.13
2023-03-25T03:08:19.619Z,2.57
2023-03-25T03:10:54.435Z,2.60
2023-03-25T03:13:34.804Z,1.67
2023-03-25T03:16:11.908Z,1.97
2023-03-25T03:18:46.165Z,5.13
2023-03-25T03:21:23.156Z,2.40
2023-03-25T03:23:59.264Z,2.23
2023-03-25T03:26:34.903Z,3.03
2023-03-25T03:29:11.438Z,2.93
2023-03-25T03:31:48.342Z,3.93
2023-03-25T03:34:41.162Z,3.70
2023-03-25T03:37:11.535Z,2.80
2023-03-25T03:39:40.367Z,3.23
2023-03-25T03:42:15.988Z,2.87
2023-03-25T03:44:50.533Z,3.13
2023-03-25T03:47:23.181Z,2.60
2023-03-25T03:49:55.009Z,4.57
2023-03-25T03:52:26.448Z,2.23
2023-03-25T03:54:58.692Z,4.70
2023-03-25T03:57:30.157Z,3.00
2023-03-25T04:00:05.615Z,3.27
2023-03-25T04:02:43.147Z,5.27
2023-03-25T04:05:14.527Z,2.77
2023-03-25T04:07:46.745Z,3.50
2023-03-25T04:10:18.338Z,2.43
2023-03-25T04:12:51.138Z,4.27
2023-03-25T04:15:19.609Z,3.80
2023-03-25T04:17:48.014Z,2.17
2023-03-25T04:20:19.096Z,4.10
2023-03-25T04:22:46.900Z,3.10
2023-03-25T04:25:15.057Z,5.17
2023-03-25T04:27:48.825Z,4.60
2023-03-25T04:30:19.162Z,4.07
2023-03-25T04:32:47.525Z,3.43
2023-03-25T04:35:16.845Z,4.33
2023-03-25T04:37:45.736Z,5.73
2023-03-25T04:40:16.305Z,4.47
2023-03-25T04:42:46.435Z,3.20
2023-03-25T04:45:16.859Z,4.03
2023-03-25T04:47:47.726Z,4.70
2023-03-25T04:50:20.787Z,3.37
2023-03-25T04:52:48.865Z,3.50
2023-03-25T04:55:17.695Z,4.10
2023-03-25T04:57:46.757Z,4.57
2023-03-25T05:00:16.423Z,5.83
2023-03-25T05:02:47.021Z,4.43
2023-03-25T05:05:18.382Z,5.03
2023-03-25T05:07:47.162Z,3.47
2023-03-25T05:10:15.164Z,4.50
2023-03-25T05:12:43.369Z,5.60
2023-03-25T05:15:12.864Z,6.00
2023-03-25T05:17:41.279Z,5.23
2023-03-25T05:20:11.515Z,6.63
2023-03-25T05:22:39.455Z,4.77
2023-03-25T05:25:08.219Z,6.40
2023-03-25T05:27:37.689Z,5.70
2023-03-25T05:30:06.724Z,3.43
2023-03-25T05:32:34.658Z,5.70
2023-03-25T05:35:03.390Z,2.93
2023-03-25T05:37:32.667Z,6.57
2023-03-25T05:40:00.644Z,8.87
2023-03-25T05:42:28.411Z,5.57
2023-03-25T05:44:57.631Z,5.13
2023-03-25T05:47:26.335Z,5.50
2023-03-25T05:49:54.458Z,7.63
2023-03-25T05:52:24.450Z,3.83
2023-03-25T05:54:53.822Z,3.97
2023-03-25T05:57:21.619Z,4.73
2023-03-25T05:59:49.419Z,3.47
2023-03-25T06:02:18.381Z,6.20
2023-03-25T06:04:47.313Z,7.37
2023-03-25T06:07:19.757Z,3.47
2023-03-25T06:09:48.308Z,3.23
2023-03-25T06:12:19.754Z,4.77
2023-03-25T06:14:47.842Z,4.37
2023-03-25T06:17:18.979Z,4.10
2023-03-25T06:19:47.213Z,2.67
2023-03-25T06:22:15.519Z,4.93
2023-03-25T06:24:44.220Z,3.60
2023-03-25T06:27:15.124Z,4.50
2023-03-25T06:29:45.613Z,4.83
2023-03-25T06:32:15.469Z,3.97
2023-03-25T06:34:44.587Z,4.63
2023-03-25T06:37:12.647Z,4.47
2023-03-25T06:39:40.444Z,2.83
2023-03-25T06:42:17.784Z,6.70
2023-03-25T06:45:02.957Z,6.23
2023-03-25T06:47:56.669Z,4.90
2023-03-25T06:50:24.544Z,4.00
2023-03-25T06:52:52.311Z,5.63
2023-03-25T06:55:20.298Z,9.40
2023-03-25T06:57:48.044Z,4.20
2023-03-25T07:00:20.364Z,3.33
2023-03-25T07:02:48.191Z,4.90
2023-03-25T07:05:16.143Z,6.00
2023-03-25T07:07:43.998Z,4.40
2023-03-25T07:10:13.309Z,5.90
2023-03-25T07:12:41.381Z,4.50
2023-03-25T07:15:09.848Z,6.13
2023-03-25T07:17:43.096Z,5.90
2023-03-25T07:20:13.430Z,4.63
2023-03-25T07:22:42.312Z,5.60
2023-03-25T07:25:10.757Z,4.30
2023-03-25T07:27:38.508Z,3.47
2023-03-25T07:30:11.557Z,2.83
2023-03-25T07:32:39.348Z,3.03
2023-03-25T07:35:10.358Z,2.63
2023-03-25T07:37:38.270Z,3.63
2023-03-25T07:40:07.350Z,5.17
2023-03-25T07:42:37.121Z,5.27
2023-03-25T07:45:25.852Z,3.33
2023-03-25T07:47:54.387Z,6.40
2023-03-25T07:50:25.183Z,4.57
2023-03-25T07:52:54.488Z,5.10
2023-03-25T07:55:22.911Z,3.38
2023-03-25T07:57:50.787Z,5.80
2023-03-25T08:00:18.865Z,5.57
2023-03-25T08:02:46.810Z,7.38
2023-03-25T08:05:16.260Z,5.63
2023-03-25T08:07:45.565Z,6.68
2023-03-25T08:10:15.139Z,5.15
2023-03-25T08:12:43.196Z,5.45
2023-03-25T08:15:12.741Z,5.13
2023-03-25T08:17:40.971Z,4.70
2023-03-25T08:20:11.359Z,5.30
2023-03-25T08:22:39.129Z,6.35
2023-03-25T08:25:09.471Z,6.95
2023-03-25T08:27:37.266Z,5.68
2023-03-25T08:30:05.845Z,6.32
2023-03-25T08:32:36.456Z,6.43
2023-03-25T08:35:05.600Z,4.43
2023-03-25T08:37:35.280Z,5.37
2023-03-25T08:40:06.897Z,6.03
2023-03-25T08:42:36.291Z,5.32
2023-03-25T08:45:04.361Z,4.00
2023-03-25T08:47:32.627Z,4.78
2023-03-25T08:50:00.772Z,3.55
2023-03-25T08:52:28.546Z,5.00
2023-03-25T08:54:57.473Z,6.10
2023-03-25T08:57:25.284Z,6.40
2023-03-25T08:59:54.515Z,8.00
2023-03-25T09:02:22.289Z,6.25
2023-03-25T09:04:50.316Z,6.85
2023-03-25T09:07:19.830Z,7.78
2023-03-25T09:09:47.842Z,6.97
2023-03-25T09:12:15.635Z,8.52
2023-03-25T09:14:43.634Z,6.30
2023-03-25T09:17:12.796Z,7.80
2023-03-25T09:19:40.709Z,6.32
2023-03-25T09:22:08.959Z,6.05
2023-03-25T09:24:36.855Z,7.80
2023-03-25T09:27:04.853Z,7.20
2023-03-25T09:29:32.652Z,7.63
2023-03-25T09:32:01.033Z,9.38
2023-03-25T09:34:31.037Z,8.35
2023-03-25T09:36:59.477Z,10.57
2023-03-25T09:39:27.619Z,10.25
2023-03-25T09:42:08.554Z,9.20
2023-03-25T09:44:42.534Z,8.35
2023-03-25T09:47:14.982Z,7.82
2023-03-25T09:49:53.476Z,9.68
2023-03-25T09:52:27.647Z,10.25
2023-03-25T09:55:00.778Z,9.95
2023-03-25T09:57:32.171Z,8.10
2023-03-25T10:00:04.075Z,7.78
2023-03-25T10:02:41.322Z,7.93
2023-03-25T10:05:24.096Z,5.35
2023-03-25T10:08:06.556Z,7.40
2023-03-25T10:10:41.538Z,6.78
2023-03-25T10:13:19.794Z,14.05
2023-03-25T10:15:55.350Z,8.35
2023-03-25T10:18:54.007Z,10.63
2023-03-25T10:21:29.967Z,10.15
2023-03-25T10:24:07.201Z,6.93
2023-03-25T10:26:44.484Z,7.88
2023-03-25T10:29:15.768Z,7.30
2023-03-25T10:31:52.402Z,8.90
2023-03-25T10:34:24.658Z,5.90
2023-03-25T10:36:57.757Z,8.38
2023-03-25T10:39:34.002Z,8.48
2023-03-25T10:42:05.460Z,8.25
2023-03-25T10:44:33.486Z,5.25
2023-03-25T10:47:06.212Z,7.22
2023-03-25T10:49:37.050Z,8.40
2023-03-25T10:52:06.961Z,8.40
2023-03-25T10:54:38.985Z,7.60
2023-03-25T10:57:10.140Z,6.90
2023-03-25T10:59:43.368Z,10.48
2023-03-25T11:02:16.362Z,6.63
2023-03-25T11:04:45.841Z,5.82
2023-03-25T11:07:20.701Z,6.40
2023-03-25T11:09:51.806Z,7.18
2023-03-25T11:12:30.169Z,9.55
2023-03-25T11:15:10.341Z,10.73
2023-03-25T11:17:39.785Z,8.07
2023-03-25T11:20:17.733Z,10.80
2023-03-25T11:22:52.283Z,8.27
2023-03-25T11:25:25.793Z,4.68
2023-03-25T11:27:59.306Z,5.75
2023-03-25T11:30:30.459Z,8.07
2023-03-25T11:33:02.300Z,6.35
2023-03-25T11:35:34.372Z,6.40
2023-03-25T11:38:15.619Z,6.20
2023-03-25T11:40:53.712Z,10.32
2023-03-25T11:43:24.200Z,5.72
2023-03-25T11:45:52.906Z,7.40
2023-03-25T11:48:24.129Z,4.85
2023-03-25T11:51:00.739Z,4.50
2023-03-25T11:53:33.805Z,6.63
2023-03-25T11:56:08.367Z,5.80
2023-03-25T11:58:39.295Z,5.35
2023-03-25T12:01:09.109Z,6.43
2023-03-25T12:03:39.596Z,5.38
2023-03-25T12:06:18.381Z,7.38
2023-03-25T12:08:52.807Z,5.78
2023-03-25T12:11:25.316Z,5.22
2023-03-25T12:14:18.491Z,4.70
2023-03-25T12:16:52.308Z,7.20
2023-03-25T12:19:28.522Z,5.72
2023-03-25T12:22:06.505Z,4.30
2023-03-25T12:24:49.274Z,6.25
2023-03-25T12:27:32.208Z,7.53
2023-03-25T12:30:10.878Z,6.15
2023-03-25T12:32:46.568Z,6.70
2023-03-25T12:35:29.716Z,5.50
2023-03-25T12:38:23.053Z,8.05
2023-03-25T12:41:06.093Z,5.93
2023-03-25T12:43:47.280Z,4.90
2023-03-25T12:46:28.418Z,6.70
2023-03-25T12:49:08.708Z,3.13
2023-03-25T12:51:45.675Z,3.72
2023-03-25T12:54:29.917Z,3.75
2023-03-25T12:57:09.071Z,1.70
2023-03-25T13:00:07.931Z,2.60
2023-03-25T13:02:54.759Z,3.75
2023-03-25T13:05:28.900Z,2.75
2023-03-25T13:08:03.766Z,3.08
2023-03-25T13:10:35.680Z,3.88
2023-03-25T13:13:11.726Z,6.03
2023-03-25T13:15:45.402Z,2.58
2023-03-25T13:18:16.789Z,3.75
2023-03-25T13:20:51.588Z,3.33
2023-03-25T13:23:24.182Z,5.15
2023-03-25T13:25:57.623Z,5.13
2023-03-25T13:28:38.234Z,7.25
2023-03-25T13:31:09.289Z,6.53
2023-03-25T13:33:44.261Z,7.95
2023-03-25T13:36:20.095Z,3.83
2023-03-25T13:38:52.106Z,9.07
2023-03-25T13:41:26.003Z,8.15
2023-03-25T13:44:05.268Z,7.25
2023-03-25T13:46:38.275Z,6.22
2023-03-25T13:49:11.414Z,11.00
2023-03-25T13:51:39.209Z,9.85
2023-03-25T13:54:14.681Z,5.03
2023-03-25T13:57:14.932Z,12.70
2023-03-25T14:00:15.344Z,5.95
2023-03-25T14:03:02.960Z,4.35
2023-03-25T14:05:56.286Z,5.72
2023-03-25T14:09:13.734Z,3.92
2023-03-25T14:11:46.252Z,5.13
2023-03-25T14:14:17.935Z,4.30
2023-03-25T14:16:49.971Z,4.95
2023-03-25T14:19:23.475Z,2.55
2023-03-25T14:21:53.459Z,2.03
2023-03-25T14:24:27.395Z,2.63
2023-03-25T14:27:01.122Z,3.72
2023-03-25T14:29:38.298Z,2.63
2023-03-25T14:32:32.036Z,3.00
2023-03-25T14:35:33.783Z,2.13
2023-03-25T14:38:21.750Z,1.10
2023-03-25T14:41:03.084Z,3.00
2023-03-25T14:43:34.161Z,3.72
2023-03-25T14:46:06.570Z,2.40
2023-03-25T14:48:44.908Z,2.78
2023-03-25T14:51:23.140Z,4.28
2023-03-25T14:54:00.482Z,3.67
2023-03-25T14:56:35.175Z,4.90
2023-03-25T14:59:10.425Z,4.15
2023-03-25T15:01:40.438Z,4.35
2023-03-25T15:04:14.873Z,4.20
2023-03-25T15:06:43.887Z,4.10
2023-03-25T15:09:15.857Z,2.97
2023-03-25T15:11:46.395Z,2.63
2023-03-25T15:14:17.910Z,2.35
2023-03-25T15:17:08.167Z,3.10
2023-03-25T15:20:27.366Z,2.58
2023-03-25T15:23:25.340Z,0.90
2023-03-25T15:25:55.717Z,2.78
2023-03-25T15:28:37.725Z,1.67
2023-03-25T15:31:22.681Z,1.95
2023-03-25T15:34:11.528Z,1.80
2023-03-25T15:37:46.185Z,2.28
2023-03-25T15:40:33.215Z,5.18
2023-03-25T15:43:22.195Z,3.30
2023-03-25T15:46:25.547Z,4.53
2023-03-25T15:49:18.152Z,3.00
2023-03-25T15:51:57.933Z,4.53
2023-03-25T15:54:40.470Z,4.60
2023-03-25T15:57:19.318Z,4.95
2023-03-25T15:59:55.553Z,3.75
2023-03-25T16:02:29.451Z,3.37
2023-03-25T16:04:58.073Z,3.55
2023-03-25T16:07:30.537Z,3.60
2023-03-25T16:10:10.179Z,4.13
2023-03-25T16:12:39.361Z,3.35
2023-03-25T16:15:08.455Z,5.22
2023-03-25T16:17:36.675Z,5.50
2023-03-25T16:20:07.544Z,6.68
2023-03-25T16:22:37.702Z,2.88
2023-03-25T16:25:14.091Z,6.88
2023-03-25T16:27:46.896Z,4.75
2023-03-25T16:30:24.022Z,4.30
2023-03-25T16:32:52.344Z,7.93
2023-03-25T16:35:26.683Z,5.22
2023-03-25T16:37:57.163Z,6.82
2023-03-25T16:40:28.969Z,7.22
2023-03-25T16:43:06.127Z,4.60
2023-03-25T16:45:35.204Z,4.13
2023-03-25T16:48:08.843Z,4.83
2023-03-25T16:50:37.551Z,4.17
2023-03-25T16:53:06.911Z,4.68
2023-03-25T16:55:47.207Z,4.82
2023-03-25T16:58:20.989Z,8.70
2023-03-25T17:00:51.971Z,8.37
2023-03-25T17:03:38.453Z,5.15
2023-03-25T17:06:13.219Z,7.68
2023-03-25T17:08:41.091Z,8.43
2023-03-25T17:11:10.417Z,8.02
2023-03-25T17:13:43.757Z,8.98
2023-03-25T17:16:12.081Z,8.98
2023-03-25T17:18:40.804Z,9.83
2023-03-25T17:21:12.366Z,9.00
2023-03-25T17:23:45.835Z,8.47
2023-03-25T17:26:17.386Z,8.50
2023-03-25T17:28:59.873Z,8.83
2023-03-25T17:31:33.795Z,9.20
2023-03-25T17:34:05.361Z,8.43
2023-03-25T17:36:35.457Z,9.43
2023-03-25T17:39:06.370Z,9.90
2023-03-25T17:41:38.733Z,10.68
2023-03-25T17:44:08.523Z,10.07
2023-03-25T17:46:36.391Z,9.20
2023-03-25T17:49:14.859Z,6.20
2023-03-25T17:51:42.697Z,9.00
2023-03-25T17:54:10.543Z,9.10
2023-03-25T17:56:39.461Z,9.50
2023-03-25T17:59:16.623Z,7.30
2023-03-25T18:01:45.247Z,7.03
2023-03-25T18:04:15.131Z,6.77
2023-03-25T18:06:44.163Z,7.93
2023-03-25T18:09:17.161Z,9.10
2023-03-25T18:11:46.320Z,4.23
2023-03-25T18:14:16.020Z,7.70
2023-03-25T18:16:43.927Z,8.30
2023-03-25T18:19:15.977Z,8.07
2023-03-25T18:21:44.262Z,10.00
2023-03-25T18:24:13.403Z,11.07
2023-03-25T18:26:43.465Z,6.70
2023-03-25T18:29:13.498Z,8.67
2023-03-25T18:31:42.795Z,6.67
2023-03-25T18:34:12.944Z,9.87
2023-03-25T18:36:40.949Z,7.47
2023-03-25T18:39:13.670Z,6.93
2023-03-25T18:41:41.723Z,6.60
2023-03-25T18:44:09.937Z,9.13
2023-03-25T18:46:38.049Z,11.97
2023-03-25T18:49:13.336Z,5.00
2023-03-25T18:51:41.180Z,6.97
2023-03-25T18:54:09.025Z,7.97
2023-03-25T18:56:37.262Z,10.50
2023-03-25T18:59:05.038Z,7.00
2023-03-25T19:01:32.953Z,9.10
2023-03-25T19:04:02.828Z,9.50
2023-03-25T19:06:32.146Z,7.27
2023-03-25T19:09:00.106Z,5.33
2023-03-25T19:11:28.325Z,7.77
2023-03-25T19:13:56.159Z,6.17
2023-03-25T19:16:23.985Z,10.57
2023-03-25T19:18:51.799Z,6.00
2023-03-25T19:21:21.019Z,6.17
2023-03-25T19:23:51.748Z,9.00
2023-03-25T19:26:19.528Z,8.67
2023-03-25T19:28:47.343Z,12.63
2023-03-25T19:31:16.214Z,13.00
2023-03-25T19:33:44.180Z,17.53
2023-03-25T19:36:14.881Z,12.37
2023-03-25T19:38:43.779Z,10.27
2023-03-25T19:41:15.420Z,11.87
2023-03-25T19:43:43.539Z,9.37
2023-03-25T19:46:11.489Z,8.77
2023-03-25T19:48:39.704Z,11.00
2023-03-25T19:51:07.534Z,10.87
2023-03-25T19:53:35.395Z,10.60
2023-03-25T19:56:04.775Z,10.60
2023-03-25T19:58:35.447Z,6.03
2023-03-25T20:01:03.277Z,6.53
2023-03-25T20:03:32.926Z,6.67
2023-03-25T20:06:02.213Z,5.37
2023-03-25T20:08:30.334Z,8.43
2023-03-25T20:10:58.411Z,3.57
2023-03-25T20:13:26.628Z,4.87
2023-03-25T20:15:55.965Z,6.13
2023-03-25T20:18:24.067Z,5.20
2023-03-25T20:20:51.802Z,8.57
2023-03-25T20:23:19.661Z,10.77
2023-03-25T20:25:48.230Z,7.50
2023-03-25T20:28:18.372Z,8.83
2023-03-25T20:30:46.170Z,5.07
2023-03-25T20:33:15.385Z,7.60
2023-03-25T20:35:43.857Z,7.83
2023-03-25T20:38:14.189Z,5.97
2023-03-25T20:40:44.851Z,4.90
2023-03-25T20:43:14.554Z,7.40
2023-03-25T20:45:43.396Z,8.17
2023-03-25T20:48:11.385Z,8.63
2023-03-25T20:50:40.649Z,8.27
2023-03-25T20:53:08.773Z,7.17
2023-03-25T20:55:37.279Z,12.00
2023-03-25T20:58:05.768Z,10.40
2023-03-25T21:00:34.093Z,14.90
2023-03-25T21:03:02.189Z,11.63
2023-03-25T21:05:29.963Z,9.20
2023-03-25T21:07:59.175Z,12.13
2023-03-25T21:10:27.267Z,5.83
2023-03-25T21:12:55.045Z,10.20
2023-03-25T21:15:23.089Z,8.20
2023-03-25T21:17:50.909Z,6.73
2023-03-25T21:20:21.860Z,10.03
2023-03-25T21:22:50.853Z,8.60
2023-03-25T21:25:20.148Z,7.43
2023-03-25T21:27:47.965Z,5.67
2023-03-25T21:30:16.441Z,5.63
2023-03-25T21:32:44.407Z,9.07
2023-03-25T21:35:12.325Z,5.97
2023-03-25T21:37:40.531Z,4.87
2023-03-25T21:40:11.457Z,5.77
2023-03-25T21:42:42.049Z,3.93
2023-03-25T21:45:11.900Z,4.23
2023-03-25T21:47:39.985Z,5.10
2023-03-25T21:50:10.519Z,6.10
2023-03-25T21:52:38.553Z,3.03
2023-03-25T21:55:07.402Z,4.93
2023-03-25T21:57:37.819Z,4.53
2023-03-25T22:00:09.551Z,5.00
2023-03-25T22:02:39.935Z,3.93
2023-03-25T22:05:08.802Z,5.17
2023-03-25T22:07:36.629Z,4.27
2023-03-25T22:10:05.052Z,4.73
2023-03-25T22:12:33.080Z,4.37
2023-03-25T22:15:01.089Z,3.33
2023-03-25T22:17:33.497Z,3.57
2023-03-25T22:20:01.349Z,6.10
2023-03-25T22:22:29.998Z,4.37
2023-03-25T22:24:58.082Z,3.53
2023-03-25T22:27:26.035Z,5.40
2023-03-25T22:29:53.988Z,4.33
2023-03-25T22:32:24.230Z,3.23
2023-03-25T22:34:53.547Z,2.67
2023-03-25T22:37:21.813Z,2.83
2023-03-25T22:39:52.425Z,3.13
2023-03-25T22:42:20.271Z,2.03
2023-03-25T22:44:48.367Z,4.27
2023-03-25T22:47:16.270Z,2.77
2023-03-25T22:49:44.057Z,3.33
2023-03-25T22:52:13.227Z,3.33
2023-03-25T22:54:41.011Z,2.10
2023-03-25T22:57:08.897Z,1.87
2023-03-25T22:59:38.633Z,1.30
2023-03-25T23:02:07.422Z,2.53
2023-03-25T23:04:35.296Z,1.37
2023-03-25T23:07:07.729Z,1.60
2023-03-25T23:09:45.097Z,2.33
2023-03-25T23:12:15.580Z,1.63
2023-03-25T23:14:48.390Z,1.80
2023-03-25T23:17:16.642Z,2.37
2023-03-25T23:19:45.408Z,1.30
2023-03-25T23:22:13.211Z,2.67
2023-03-25T23:24:42.348Z,2.00
2023-03-25T23:27:12.138Z,1.97
2023-03-25T23:29:41.754Z,1.40
2023-03-25T23:32:10.834Z,2.63
2023-03-25T23:34:40.171Z,1.97
2023-03-25T23:37:09.228Z,2.13
2023-03-25T23:39:40.249Z,2.43
2023-03-25T23:42:09.546Z,1.73
2023-03-25T23:44:37.332Z,1.20
2023-03-25T23:47:06.124Z,1.93
2023-03-25T23:49:38.119Z,1.40
2023-03-25T23:52:10.947Z,2.83
2023-03-25T23:54:39.318Z,4.43
2023-03-25T23:57:07.171Z,3.70
2023-03-25T23:59:36.377Z,2.03
